createdAt,value
2022-08-05T04:08:46.206Z,5.12
2022-08-05T04:11:52.596Z,4.90
2022-08-05T04:14:57.580Z,5.43
2022-08-05T04:18:03.971Z,4.87
2022-08-05T04:21:10.887Z,5.25
2022-08-05T04:24:18.839Z,5.00
2022-08-05T04:27:41.925Z,5.10
2022-08-05T04:30:48.130Z,4.80
2022-08-05T04:34:17.375Z,5.00
2022-08-05T04:37:12.777Z,5.15
2022-08-05T04:40:14.993Z,5.15
2022-08-05T04:43:22.220Z,4.62
2022-08-05T04:46:28.473Z,4.57
2022-08-05T04:49:39.301Z,5.07
2022-08-05T04:52:53.081Z,4.80
2022-08-05T04:56:14.429Z,4.95
2022-08-05T04:59:24.215Z,5.10
2022-08-05T05:02:41.893Z,4.78
2022-08-05T05:06:40.280Z,5.12
2022-08-05T05:09:07.777Z,5.00
2022-08-05T05:12:09.875Z,5.57
2022-08-05T05:15:13.969Z,5.05
2022-08-05T05:18:28.001Z,4.85
2022-08-05T05:21:33.293Z,5.18
2022-08-05T05:24:56.421Z,5.05
2022-08-05T05:27:57.874Z,5.25
2022-08-05T05:30:59.974Z,5.40
2022-08-05T05:34:02.997Z,4.85
2022-08-05T05:37:05.103Z,4.60
2022-08-05T05:40:08.781Z,4.62
2022-08-05T05:43:13.759Z,4.75
2022-08-05T05:46:18.935Z,4.28
2022-08-05T05:49:22.616Z,4.40
2022-08-05T05:52:30.048Z,4.50
2022-08-05T05:55:52.311Z,4.30
2022-08-05T05:58:57.650Z,4.25
2022-08-05T06:02:05.721Z,4.45
2022-08-05T06:05:16.977Z,4.75
2022-08-05T06:08:32.321Z,4.82
2022-08-05T06:11:35.719Z,4.32
2022-08-05T06:14:44.727Z,3.92
2022-08-05T06:20:56.244Z,4.80
2022-08-05T06:23:59.666Z,4.47
2022-08-05T06:27:04.271Z,4.20
2022-08-05T06:30:17.994Z,4.40
2022-08-05T06:33:33.417Z,4.53
2022-08-05T06:36:57.293Z,3.60
2022-08-05T06:43:04.839Z,3.97
2022-08-05T06:46:07.531Z,3.30
2022-08-05T06:49:09.938Z,3.80
2022-08-05T06:52:36.908Z,3.37
2022-08-05T06:55:37.034Z,4.28
2022-08-05T06:58:39.501Z,3.83
2022-08-05T07:01:42.553Z,3.65
2022-08-05T07:04:44.664Z,3.75
2022-08-05T07:07:48.997Z,3.30
2022-08-05T07:10:53.263Z,3.45
2022-08-05T07:14:15.607Z,3.60
2022-08-05T07:18:02.048Z,4.40
2022-08-05T07:20:45.211Z,3.30
2022-08-05T07:23:49.995Z,3.65
2022-08-05T07:26:54.644Z,3.08
2022-08-05T07:30:27.436Z,3.55
2022-08-05T07:33:21.435Z,3.42
2022-08-05T07:36:39.430Z,3.83
2022-08-05T07:40:26.992Z,3.12
2022-08-05T07:43:04.919Z,3.35
2022-08-05T07:46:24.494Z,3.42
2022-08-05T07:49:27.681Z,3.22
2022-08-05T07:52:30.436Z,3.03
2022-08-05T07:56:05.141Z,3.42
2022-08-05T07:58:58.763Z,3.92
2022-08-05T08:02:02.361Z,3.53
2022-08-05T08:05:06.473Z,3.75
2022-08-05T08:08:12.603Z,4.15
2022-08-05T08:11:17.724Z,3.65
2022-08-05T08:14:29.901Z,3.28
2022-08-05T08:17:33.052Z,3.70
2022-08-05T08:20:44.659Z,3.90
2022-08-05T08:24:04.975Z,3.78
2022-08-05T08:27:08.499Z,3.60
2022-08-05T08:30:27.663Z,3.53
2022-08-05T08:33:37.448Z,3.33
2022-08-05T08:36:48.882Z,3.30
2022-08-05T08:39:57.078Z,3.60
2022-08-05T08:45:04.479Z,3.42
2022-08-05T08:46:24.266Z,3.67
2022-08-05T08:50:14.493Z,3.50
2022-08-05T08:52:56.746Z,3.25
2022-08-05T08:56:03.511Z,3.30
2022-08-05T08:59:19.500Z,3.70
2022-08-05T09:02:26.555Z,3.53
2022-08-05T09:05:38.406Z,3.90
2022-08-05T09:08:41.578Z,3.00
2022-08-05T09:11:51.111Z,3.53
2022-08-05T09:15:03.964Z,3.40
2022-08-05T09:18:10.103Z,3.50
2022-08-05T09:21:20.777Z,3.55
2022-08-05T09:24:24.177Z,3.40
2022-08-05T09:28:04.420Z,3.28
2022-08-05T09:31:22.060Z,3.60
2022-08-05T09:34:46.481Z,4.30
2022-08-05T09:38:17.389Z,3.65
2022-08-05T09:41:16.049Z,3.70
2022-08-05T09:44:36.588Z,3.55
2022-08-05T09:47:55.457Z,4.47
2022-08-05T09:50:59.844Z,3.72
2022-08-05T09:54:06.796Z,3.35
2022-08-05T09:57:20.640Z,3.60
2022-08-05T10:00:26.426Z,3.33
2022-08-05T10:03:56.882Z,3.00
2022-08-05T10:06:59.341Z,3.60
2022-08-05T10:10:15.573Z,3.33
2022-08-05T10:13:43.969Z,3.47
2022-08-05T10:16:53.209Z,3.25
2022-08-05T10:20:03.718Z,3.72
2022-08-05T10:23:34.321Z,3.03
2022-08-05T10:26:37.257Z,3.40
2022-08-05T10:30:06.719Z,2.95
2022-08-05T10:33:17.550Z,3.80
2022-08-05T10:36:23.648Z,3.50
2022-08-05T10:40:03.137Z,3.92
2022-08-05T10:43:02.544Z,3.50
2022-08-05T10:46:09.513Z,3.45
2022-08-05T10:49:16.849Z,3.28
2022-08-05T10:56:21.215Z,3.30
2022-08-05T11:00:03.257Z,3.22
2022-08-05T11:03:23.497Z,3.35
2022-08-05T11:06:31.180Z,3.65
2022-08-05T11:09:46.355Z,3.60
2022-08-05T11:12:54.467Z,3.33
2022-08-05T11:16:22.005Z,3.58
2022-08-05T11:20:16.840Z,3.62
2022-08-05T11:22:54.833Z,3.90
2022-08-05T11:26:11.199Z,3.55
2022-08-05T11:29:34.813Z,3.40
2022-08-05T11:32:39.294Z,3.12
2022-08-05T11:36:07.415Z,3.15
2022-08-05T11:39:13.609Z,3.17
2022-08-05T11:42:18.396Z,3.60
2022-08-05T11:46:14.507Z,3.50
2022-08-05T11:48:43.283Z,3.83
2022-08-05T11:51:49.474Z,3.55
2022-08-05T11:54:54.944Z,3.35
2022-08-05T11:58:09.532Z,4.10
2022-08-05T12:01:19.150Z,3.70
2022-08-05T12:04:22.698Z,3.58
2022-08-05T12:08:09.491Z,3.45
2022-08-05T12:11:00.304Z,3.58
2022-08-05T12:14:08.520Z,3.83
2022-08-05T12:18:02.775Z,3.78
2022-08-05T12:20:38.533Z,3.47
2022-08-05T12:23:57.424Z,3.62
2022-08-05T12:27:09.963Z,3.95
2022-08-05T12:30:23.820Z,3.28
2022-08-05T12:33:37.167Z,3.60
2022-08-05T12:36:41.822Z,3.45
2022-08-05T12:39:44.861Z,3.80
2022-08-05T12:42:53.534Z,3.30
2022-08-05T12:45:56.642Z,3.25
2022-08-05T12:49:13.238Z,3.75
2022-08-05T12:52:25.579Z,3.33
2022-08-05T12:55:32.756Z,3.50
2022-08-05T12:58:38.786Z,3.60
2022-08-05T13:02:07.615Z,3.78
2022-08-05T13:05:12.481Z,3.50
2022-08-05T13:08:19.903Z,3.50
2022-08-05T13:12:01.255Z,3.33
2022-08-05T13:14:59.181Z,3.60
2022-08-05T13:18:07.907Z,3.37
2022-08-05T13:21:10.239Z,3.85
2022-08-05T13:24:14.979Z,4.00
2022-08-05T13:27:42.964Z,3.62
2022-08-05T13:30:45.099Z,3.50
2022-08-05T13:34:22.074Z,3.53
2022-08-05T13:37:13.015Z,3.40
2022-08-05T13:40:36.959Z,3.37
2022-08-05T13:43:44.651Z,3.30
2022-08-05T13:47:02.588Z,3.40
2022-08-05T13:50:14.819Z,3.47
2022-08-05T13:53:19.106Z,3.50
2022-08-05T13:56:21.283Z,3.30
2022-08-05T13:59:24.777Z,3.20
2022-08-05T14:02:31.268Z,3.72
2022-08-05T14:06:24.820Z,3.55
2022-08-05T14:08:55.776Z,3.28
2022-08-05T14:12:17.113Z,3.20
2022-08-05T14:16:08.273Z,3.40
2022-08-05T14:18:42.358Z,3.03
2022-08-05T14:22:08.472Z,3.33
2022-08-05T14:25:21.438Z,3.28
2022-08-05T14:28:26.163Z,3.17
2022-08-05T14:32:02.333Z,3.22
2022-08-05T14:34:52.566Z,2.97
